Time;durP1;ratioP1;P1;durP2;ratioP2;P2;SDS_P1;SDS_P2;PMS_P1;PMS_P2;Temp;Humidity;BMP_temperature;BMP_pressure;BME280_temperature;BME280_humidity;BME280_pressure;Samples;Min_cycle;Max_cycle;Signal;HPM_P1;HPM_P2
2023/06/01 00:01:49;;;;;;;13.55;8.50;;;;;;;14.65;100.00;102216.31;5275890;28;20028;-75
2023/06/01 00:04:20;;;;;;;10.60;8.30;;;;;;;14.53;100.00;102212.88;5284595;28;20024;-76
2023/06/01 00:06:51;;;;;;;11.52;8.10;;;;;;;14.49;100.00;102207.88;5282790;28;20074;-76
2023/06/01 00:09:22;;;;;;;12.13;8.27;;;;;;;14.46;100.00;102214.41;5276371;28;20028;-76
2023/06/01 00:11:54;;;;;;;12.05;8.50;;;;;;;14.51;100.00;102212.13;5274026;28;20012;-75
2023/06/01 00:14:25;;;;;;;12.63;8.80;;;;;;;14.45;100.00;102210.00;5280883;28;20029;-75
2023/06/01 00:16:56;;;;;;;17.73;11.63;;;;;;;14.45;100.00;102207.31;5278592;28;20032;-75
2023/06/01 00:19:28;;;;;;;14.27;9.65;;;;;;;14.26;100.00;102209.91;5278526;28;20036;-74
2023/06/01 00:22:00;;;;;;;15.43;9.70;;;;;;;14.21;100.00;102199.56;5282622;28;20032;-75
2023/06/01 00:24:31;;;;;;;12.20;8.63;;;;;;;14.13;100.00;102202.94;5281729;28;20060;-74
2023/06/01 00:27:02;;;;;;;12.40;8.68;;;;;;;14.00;100.00;102205.78;5277047;28;20039;-74
2023/06/01 00:29:34;;;;;;;12.95;8.90;;;;;;;14.01;100.00;102209.34;5281918;28;20031;-74
2023/06/01 00:32:06;;;;;;;12.88;9.15;;;;;;;13.97;100.00;102202.53;5278585;28;20115;-75
2023/06/01 00:34:37;;;;;;;14.30;9.93;;;;;;;13.86;100.00;102214.19;5276373;28;20024;-74
2023/06/01 00:37:08;;;;;;;9.82;8.38;;;;;;;13.84;100.00;102205.41;5275305;28;20031;-74
2023/06/01 00:39:39;;;;;;;16.05;9.95;;;;;;;13.77;100.00;102207.75;5282200;28;20024;-75
2023/06/01 00:42:11;;;;;;;17.65;10.23;;;;;;;13.71;100.00;102204.75;5275649;28;20180;-75
2023/06/01 00:44:42;;;;;;;17.75;10.15;;;;;;;13.73;100.00;102198.28;5277503;28;20477;-75
2023/06/01 00:47:13;;;;;;;17.80;10.52;;;;;;;13.66;100.00;102197.09;5279766;28;20567;-74
2023/06/01 00:49:45;;;;;;;13.80;10.30;;;;;;;13.59;100.00;102194.09;5281312;28;20378;-75
2023/06/01 00:52:17;;;;;;;13.52;9.60;;;;;;;13.48;100.00;102201.31;5281784;28;20416;-75
2023/06/01 00:54:49;;;;;;;15.75;10.80;;;;;;;13.37;100.00;102202.22;5277555;28;20028;-75
2023/06/01 00:57:21;;;;;;;15.02;10.60;;;;;;;13.42;100.00;102197.34;5279482;28;20401;-76
2023/06/01 00:59:54;;;;;;;16.33;10.27;;;;;;;13.35;100.00;102201.50;5278639;28;20359;-75
2023/06/01 01:02:26;;;;;;;13.07;10.20;;;;;;;13.27;100.00;102201.25;5281256;28;20044;-75
2023/06/01 01:04:59;;;;;;;15.35;11.43;;;;;;;13.15;100.00;102212.00;5283529;28;20693;-75
2023/06/01 01:07:53;;;;;;;15.70;11.48;;;;;;;13.23;100.00;102214.88;5284551;28;20031;-75
2023/06/01 01:10:38;;;;;;;19.83;11.35;;;;;;;13.09;100.00;102215.19;5287939;28;20028;-75
2023/06/01 01:13:14;;;;;;;14.63;11.63;;;;;;;12.97;100.00;102222.41;5285651;28;20020;-74
2023/06/01 01:16:10;;;;;;;16.13;11.75;;;;;;;13.05;100.00;102216.41;5284273;28;20489;-75
2023/06/01 01:18:57;;;;;;;15.27;10.90;;;;;;;13.01;100.00;102217.66;5279799;28;20086;-75
2023/06/01 01:21:32;;;;;;;20.17;11.88;;;;;;;12.92;100.00;102211.22;5282165;28;20029;-75
2023/06/01 01:24:23;;;;;;;18.33;11.38;;;;;;;12.85;100.00;102212.69;5282749;28;20489;-75
2023/06/01 01:27:15;;;;;;;15.82;12.40;;;;;;;12.73;100.00;102219.88;5281063;28;20032;-74
2023/06/01 01:29:47;;;;;;;16.90;11.18;;;;;;;12.73;100.00;102222.56;5279211;28;20028;-75
2023/06/01 01:32:20;;;;;;;16.02;12.57;;;;;;;12.66;100.00;102222.19;5280667;28;20105;-75
2023/06/01 01:34:53;;;;;;;17.83;12.45;;;;;;;12.56;100.00;102221.22;5278285;28;20084;-75
2023/06/01 01:37:25;;;;;;;17.38;12.40;;;;;;;12.53;100.00;102224.13;5282069;28;20501;-75
2023/06/01 01:39:56;;;;;;;18.27;12.60;;;;;;;12.54;100.00;102231.19;5281910;28;20039;-76
2023/06/01 01:42:28;;;;;;;17.75;12.70;;;;;;;12.49;100.00;102228.88;5283732;28;20028;-75
2023/06/01 01:44:59;;;;;;;17.30;12.50;;;;;;;12.49;100.00;102226.19;5286799;28;20044;-75
2023/06/01 01:47:40;;;;;;;17.45;13.38;;;;;;;12.41;100.00;102231.31;5281719;28;20069;-76
2023/06/01 01:50:12;;;;;;;18.45;13.60;;;;;;;12.33;100.00;102232.91;5279456;28;20025;-75
2023/06/01 01:52:45;;;;;;;18.55;13.60;;;;;;;12.29;100.00;102229.59;5278673;28;20028;-75
2023/06/01 01:55:18;;;;;;;19.27;14.10;;;;;;;12.33;100.00;102232.91;5282605;28;20042;-75
2023/06/01 01:57:55;;;;;;;21.00;14.18;;;;;;;12.24;100.00;102229.97;5279961;28;20025;-75
2023/06/01 02:00:27;;;;;;;20.52;13.88;;;;;;;12.19;100.00;102231.28;5278511;28;20028;-75
2023/06/01 02:03:00;;;;;;;19.52;14.05;;;;;;;12.09;100.00;102229.31;5278565;28;20033;-76
2023/06/01 02:05:31;;;;;;;20.70;14.32;;;;;;;12.01;100.00;102229.06;5278170;28;20033;-76
2023/06/01 02:08:02;;;;;;;19.45;14.23;;;;;;;11.99;100.00;102228.34;5283383;28;20150;-75
2023/06/01 02:10:34;;;;;;;21.92;14.27;;;;;;;11.87;100.00;102224.75;5290827;28;20035;-75
2023/06/01 02:13:05;;;;;;;20.08;14.77;;;;;;;11.85;100.00;102225.81;5280889;28;20402;-76
2023/06/01 02:15:36;;;;;;;21.52;15.88;;;;;;;11.81;100.00;102222.53;5290595;28;20038;-76
2023/06/01 02:18:08;;;;;;;23.23;15.45;;;;;;;11.73;100.00;102225.78;5284305;28;20032;-75
2023/06/01 02:20:39;;;;;;;23.13;15.70;;;;;;;11.68;100.00;102219.09;5280961;28;20382;-75
2023/06/01 02:23:10;;;;;;;22.08;15.13;;;;;;;11.67;100.00;102223.56;5279161;28;20519;-75
2023/06/01 02:25:42;;;;;;;20.35;15.55;;;;;;;11.67;100.00;102215.53;5285970;28;20020;-75
2023/06/01 02:28:13;;;;;;;20.35;14.55;;;;;;;11.67;100.00;102223.56;5278534;28;20040;-76
2023/06/01 02:30:45;;;;;;;24.25;15.75;;;;;;;11.59;100.00;102220.63;5278312;28;20089;-74
2023/06/01 02:33:17;;;;;;;22.80;14.85;;;;;;;11.49;100.00;102217.78;5290770;28;20542;-74
2023/06/01 02:35:48;;;;;;;21.27;15.23;;;;;;;11.51;100.00;102221.19;5285510;28;20029;-75
2023/06/01 02:38:19;;;;;;;20.63;14.30;;;;;;;11.41;100.00;102219.34;5279442;28;20051;-75
2023/06/01 02:40:51;;;;;;;22.15;14.98;;;;;;;11.44;100.00;102219.13;5276582;28;20421;-74
2023/06/01 02:43:22;;;;;;;20.40;14.77;;;;;;;11.46;100.00;102220.69;5281477;28;20031;-75
2023/06/01 02:45:53;;;;;;;20.85;14.40;;;;;;;11.42;100.00;102215.72;5278936;28;20032;-75
2023/06/01 02:48:25;;;;;;;18.17;14.20;;;;;;;11.46;100.00;102225.19;5281392;28;20028;-74
2023/06/01 02:50:56;;;;;;;18.50;12.77;;;;;;;11.41;100.00;102208.66;5275766;28;20020;-76
2023/06/01 02:53:28;;;;;;;18.40;12.48;;;;;;;11.40;100.00;102210.47;5277366;28;20103;-76
2023/06/01 02:55:59;;;;;;;17.70;13.02;;;;;;;11.37;100.00;102220.53;5278796;28;20044;-75
2023/06/01 02:58:30;;;;;;;15.18;12.32;;;;;;;11.40;100.00;102214.97;5278970;28;20072;-75
2023/06/01 03:01:02;;;;;;;17.25;12.68;;;;;;;11.42;100.00;102221.91;5278270;28;20036;-75
2023/06/01 03:03:33;;;;;;;16.77;12.20;;;;;;;11.42;100.00;102216.56;5278520;28;20091;-75
2023/06/01 03:06:05;;;;;;;20.92;12.38;;;;;;;11.40;100.00;102220.31;5279055;28;20021;-74
2023/06/01 03:08:37;;;;;;;17.35;12.30;;;;;;;11.34;100.00;102219.81;5279759;28;20040;-75
2023/06/01 03:11:08;;;;;;;20.33;11.85;;;;;;;11.35;100.00;102218.81;5277590;28;20032;-75
2023/06/01 03:13:39;;;;;;;18.77;11.80;;;;;;;11.32;100.00;102219.03;5283147;28;20024;-75
2023/06/01 03:16:11;;;;;;;13.73;11.02;;;;;;;11.28;100.00;102219.41;5283245;28;20385;-75
2023/06/01 03:18:42;;;;;;;14.95;11.15;;;;;;;11.24;100.00;102225.94;5278672;28;20028;-75
2023/06/01 03:21:13;;;;;;;15.40;11.48;;;;;;;11.32;100.00;102228.88;5282086;28;20024;-75
2023/06/01 03:23:45;;;;;;;19.10;11.82;;;;;;;11.27;100.00;102231.91;5275369;28;20489;-75
2023/06/01 03:26:18;;;;;;;16.45;10.88;;;;;;;11.19;100.00;102228.94;5275870;28;20254;-75
2023/06/01 03:28:50;;;;;;;15.23;10.80;;;;;;;11.20;100.00;102229.78;5286706;28;20103;-74
2023/06/01 03:31:21;;;;;;;15.23;10.50;;;;;;;11.14;100.00;102223.94;5283489;28;20380;-74
2023/06/01 03:33:53;;;;;;;15.73;10.00;;;;;;;11.15;100.00;102227.47;5278562;28;20062;-74
2023/06/01 03:36:25;;;;;;;15.48;10.95;;;;;;;11.14;100.00;102234.59;5281835;28;20028;-74
2023/06/01 03:38:56;;;;;;;14.70;10.05;;;;;;;11.18;100.00;102229.91;5276257;28;20040;-74
2023/06/01 03:41:27;;;;;;;14.32;10.00;;;;;;;11.15;100.00;102231.00;5276637;28;20017;-73
2023/06/01 03:43:58;;;;;;;14.45;9.50;;;;;;;11.11;100.00;102233.97;5278747;28;20036;-73
2023/06/01 03:46:30;;;;;;;16.35;9.13;;;;;;;11.13;100.00;102235.59;5275259;28;20374;-74
2023/06/01 03:49:01;;;;;;;14.35;9.27;;;;;;;11.11;100.00;102229.47;5283093;28;20032;-74
2023/06/01 03:51:32;;;;;;;14.18;9.15;;;;;;;11.21;100.00;102234.19;5278783;28;20077;-74
2023/06/01 03:54:04;;;;;;;13.63;9.68;;;;;;;11.22;100.00;102233.19;5275406;28;20094;-68
2023/06/01 03:56:35;;;;;;;16.45;9.80;;;;;;;11.23;100.00;102233.09;5279402;28;20136;-68
2023/06/01 03:59:07;;;;;;;15.05;9.15;;;;;;;11.32;100.00;102240.41;5284853;28;20032;-68
2023/06/01 04:01:40;;;;;;;12.73;9.25;;;;;;;11.29;100.00;102239.78;5286499;28;20103;-68
2023/06/01 04:04:12;;;;;;;16.88;9.30;;;;;;;11.32;100.00;102245.75;5276328;28;20031;-68
2023/06/01 04:06:45;;;;;;;13.25;9.45;;;;;;;11.28;100.00;102241.63;5281094;28;20048;-69
2023/06/01 04:09:16;;;;;;;14.07;9.85;;;;;;;11.22;100.00;102235.88;5276515;28;20472;-68
2023/06/01 04:11:47;;;;;;;11.77;9.10;;;;;;;11.25;100.00;102238.31;5277282;28;20028;-68
2023/06/01 04:14:19;;;;;;;12.55;9.45;;;;;;;11.28;100.00;102248.78;5280859;28;20086;-69
2023/06/01 04:16:50;;;;;;;13.55;8.80;;;;;;;11.25;100.00;102241.81;5278181;28;20024;-69
2023/06/01 04:19:21;;;;;;;12.18;8.95;;;;;;;11.19;100.00;102238.78;5281448;28;20032;-68
2023/06/01 04:21:53;;;;;;;11.93;8.73;;;;;;;11.19;100.00;102244.97;5276715;28;20090;-69
2023/06/01 04:24:24;;;;;;;11.38;9.07;;;;;;;11.21;100.00;102239.53;5277748;28;20485;-69
2023/06/01 04:26:56;;;;;;;13.38;8.80;;;;;;;11.18;100.00;102239.72;5284907;28;20029;-69
2023/06/01 04:29:27;;;;;;;13.18;9.43;;;;;;;11.21;100.00;102234.19;5281368;28;20256;-69
2023/06/01 04:31:59;;;;;;;13.23;8.02;;;;;;;11.22;100.00;102239.41;5278693;28;20028;-69
2023/06/01 04:34:30;;;;;;;11.50;8.60;;;;;;;11.20;100.00;102245.81;5277337;28;20099;-68
2023/06/01 04:37:04;;;;;;;14.20;9.05;;;;;;;11.26;100.00;102248.91;5276642;28;20035;-67
2023/06/01 04:39:35;;;;;;;14.85;9.77;;;;;;;11.31;100.00;102251.22;5282725;28;20035;-69
2023/06/01 04:42:08;;;;;;;13.85;8.90;;;;;;;11.34;100.00;102259.00;5286908;28;20028;-69
2023/06/01 04:44:41;;;;;;;14.38;8.70;;;;;;;11.33;100.00;102254.63;5281739;28;20020;-71
2023/06/01 04:47:13;;;;;;;17.27;9.02;;;;;;;11.40;100.00;102249.72;5284273;28;22123;-71
2023/06/01 04:49:45;;;;;;;14.23;8.88;;;;;;;11.50;100.00;102251.56;5285736;28;20020;-71
2023/06/01 04:52:16;;;;;;;11.80;9.05;;;;;;;11.48;100.00;102242.81;5289103;28;20035;-71
2023/06/01 04:54:48;;;;;;;12.93;8.93;;;;;;;11.55;100.00;102253.88;5280491;28;20043;-71
2023/06/01 04:57:19;;;;;;;13.55;9.00;;;;;;;11.57;100.00;102246.63;5294316;28;20023;-71
2023/06/01 04:59:51;;;;;;;14.43;8.82;;;;;;;11.68;100.00;102254.69;5281804;28;20033;-71
2023/06/01 05:02:24;;;;;;;14.52;9.02;;;;;;;11.76;100.00;102240.72;5293559;28;20473;-70
2023/06/01 05:04:55;;;;;;;14.48;9.57;;;;;;;11.78;100.00;102241.50;5288015;28;20039;-70
2023/06/01 05:07:27;;;;;;;14.70;9.30;;;;;;;11.79;100.00;102248.53;5295665;28;20419;-71
2023/06/01 05:10:03;;;;;;;11.40;9.57;;;;;;;11.84;100.00;102254.38;5291911;28;20131;-71
2023/06/01 05:12:36;;;;;;;15.40;10.35;;;;;;;11.70;100.00;102239.38;5289790;28;20028;-71
2023/06/01 05:15:08;;;;;;;11.95;9.82;;;;;;;11.78;100.00;102238.81;5281941;28;20516;-71
2023/06/01 05:17:40;;;;;;;13.10;9.68;;;;;;;11.85;100.00;102245.41;5287177;28;20038;-71
2023/06/01 05:20:12;;;;;;;18.90;10.82;;;;;;;11.91;100.00;102258.31;5288812;28;20027;-70
2023/06/01 05:22:43;;;;;;;17.73;10.02;;;;;;;11.89;100.00;102252.22;5285658;28;20103;-71
2023/06/01 05:25:15;;;;;;;16.15;10.00;;;;;;;11.96;100.00;102251.78;5296796;28;20048;-71
2023/06/01 05:27:46;;;;;;;14.00;10.80;;;;;;;11.96;100.00;102249.97;5292027;28;20435;-71
2023/06/01 05:30:17;;;;;;;13.88;9.75;;;;;;;12.05;100.00;102251.91;5290836;28;20020;-71
2023/06/01 05:32:49;;;;;;;13.95;10.45;;;;;;;11.99;100.00;102246.19;5278723;28;20432;-71
2023/06/01 05:35:20;;;;;;;16.45;10.43;;;;;;;12.04;100.00;102247.56;5294314;28;20024;-71
2023/06/01 05:37:51;;;;;;;14.18;10.10;;;;;;;12.14;100.00;102245.00;5288912;28;20089;-71
2023/06/01 05:40:22;;;;;;;15.68;10.07;;;;;;;12.23;100.00;102246.97;5289821;28;20043;-72
2023/06/01 05:42:54;;;;;;;16.25;10.70;;;;;;;12.32;100.00;102245.41;5290594;28;20138;-71
2023/06/01 05:45:25;;;;;;;14.93;10.43;;;;;;;12.30;100.00;102236.66;5282309;28;20024;-71
2023/06/01 05:47:56;;;;;;;19.00;10.73;;;;;;;12.38;100.00;102238.75;5288641;28;20621;-71
2023/06/01 05:50:28;;;;;;;13.20;10.18;;;;;;;12.51;100.00;102243.97;5288831;28;20081;-71
2023/06/01 05:52:59;;;;;;;16.08;9.93;;;;;;;12.51;100.00;102238.63;5278106;28;20032;-70
2023/06/01 05:55:31;;;;;;;16.77;10.70;;;;;;;12.63;100.00;102243.00;5283715;28;20448;-71
2023/06/01 05:58:02;;;;;;;15.07;10.40;;;;;;;12.65;100.00;102239.22;5286478;28;20032;-71
2023/06/01 06:00:36;;;;;;;13.40;10.65;;;;;;;12.76;100.00;102246.41;5285844;28;20215;-71
2023/06/01 06:03:08;;;;;;;14.90;10.20;;;;;;;12.69;100.00;102247.84;5281014;28;20153;-71
2023/06/01 06:05:40;;;;;;;15.82;10.23;;;;;;;12.71;100.00;102247.72;5283844;28;20038;-71
2023/06/01 06:08:11;;;;;;;14.68;10.13;;;;;;;12.51;100.00;102250.16;5283337;28;20031;-71
2023/06/01 06:10:42;;;;;;;17.30;10.77;;;;;;;12.62;100.00;102247.50;5283127;28;20024;-72
2023/06/01 06:13:14;;;;;;;16.05;10.48;;;;;;;12.71;100.00;102247.72;5289448;28;20032;-71
2023/06/01 06:15:45;;;;;;;14.02;10.65;;;;;;;12.92;100.00;102256.75;5289194;28;20035;-71
2023/06/01 06:18:19;;;;;;;14.35;10.93;;;;;;;13.04;100.00;102252.19;5288130;28;20028;-71
2023/06/01 06:20:50;;;;;;;17.10;10.30;;;;;;;13.15;100.00;102256.72;5293302;28;20032;-71
2023/06/01 06:23:22;;;;;;;14.27;9.80;;;;;;;13.37;100.00;102253.13;5283707;28;20170;-71
2023/06/01 06:25:53;;;;;;;14.88;10.10;;;;;;;13.58;100.00;102262.06;5284644;28;20055;-71
2023/06/01 06:28:24;;;;;;;12.68;10.32;;;;;;;13.63;100.00;102261.69;5282981;28;20107;-71
2023/06/01 06:30:57;;;;;;;16.50;10.35;;;;;;;13.71;100.00;102258.38;5279236;28;20020;-71
2023/06/01 06:33:28;;;;;;;18.38;11.13;;;;;;;13.84;100.00;102258.22;5281499;28;20119;-71
2023/06/01 06:35:59;;;;;;;16.80;11.38;;;;;;;13.75;100.00;102266.03;5282328;28;20240;-71
2023/06/01 06:38:30;;;;;;;17.17;9.75;;;;;;;13.87;100.00;102258.81;5283120;28;20090;-70
2023/06/01 06:41:02;;;;;;;14.07;10.10;;;;;;;14.04;100.00;102251.97;5283559;28;20183;-71
2023/06/01 06:43:33;;;;;;;14.20;9.85;;;;;;;14.13;100.00;102253.91;5285865;28;20032;-71
2023/06/01 06:46:05;;;;;;;16.02;10.27;;;;;;;14.41;100.00;102251.53;5284342;28;20028;-71
2023/06/01 06:48:36;;;;;;;16.38;9.60;;;;;;;14.49;100.00;102250.84;5290589;28;20024;-71
2023/06/01 06:51:07;;;;;;;14.90;9.45;;;;;;;14.75;100.00;102246.75;5278662;28;20028;-70
2023/06/01 06:53:38;;;;;;;19.98;10.63;;;;;;;15.05;100.00;102254.91;5282606;28;20031;-71
2023/06/01 06:56:10;;;;;;;13.27;9.15;;;;;;;15.36;100.00;102254.81;5285931;28;20036;-71
2023/06/01 06:58:41;;;;;;;12.98;9.35;;;;;;;15.42;100.00;102257.78;5281967;28;20036;-71
2023/06/01 07:01:13;;;;;;;13.95;9.57;;;;;;;15.70;100.00;102268.72;5280321;28;20028;-71
2023/06/01 07:03:44;;;;;;;13.55;8.90;;;;;;;15.98;100.00;102267.03;5285934;28;20031;-71
2023/06/01 07:06:16;;;;;;;11.75;8.60;;;;;;;16.22;100.00;102269.25;5280548;28;20079;-71
2023/06/01 07:08:47;;;;;;;13.60;9.05;;;;;;;16.25;100.00;102271.69;5284566;28;20044;-70
2023/06/01 07:11:19;;;;;;;14.07;8.40;;;;;;;16.37;100.00;102266.94;5283853;28;20024;-71
2023/06/01 07:13:50;;;;;;;12.57;8.75;;;;;;;16.55;100.00;102258.09;5280258;28;20242;-71
2023/06/01 07:16:21;;;;;;;13.18;8.23;;;;;;;16.69;100.00;102264.84;5279575;28;20035;-71
2023/06/01 07:18:52;;;;;;;13.38;9.23;;;;;;;16.61;100.00;102262.91;5287182;28;20031;-72
2023/06/01 07:21:24;;;;;;;13.00;8.98;;;;;;;16.82;100.00;102260.81;5277337;28;20038;-76
2023/06/01 07:23:55;;;;;;;13.57;8.68;;;;;;;17.06;100.00;102264.00;5278098;28;20031;-76
2023/06/01 07:26:28;;;;;;;16.10;8.88;;;;;;;17.17;100.00;102261.94;5280708;28;20065;-76
2023/06/01 07:29:00;;;;;;;11.93;8.77;;;;;;;17.24;100.00;102253.28;5276954;28;20035;-76
2023/06/01 07:31:32;;;;;;;13.52;9.02;;;;;;;17.41;100.00;102265.94;5278436;28;20028;-76
2023/06/01 07:34:03;;;;;;;12.48;8.48;;;;;;;17.67;100.00;102257.03;5278976;28;20396;-76
2023/06/01 07:36:36;;;;;;;13.27;8.57;;;;;;;17.72;100.00;102257.44;5284921;28;20032;-76
2023/06/01 07:39:09;;;;;;;15.90;8.65;;;;;;;17.89;100.00;102251.19;5278130;28;20027;-77
2023/06/01 07:41:40;;;;;;;14.07;8.88;;;;;;;17.98;100.00;102252.13;5286744;28;20443;-77
2023/06/01 07:44:12;;;;;;;11.88;8.10;;;;;;;18.00;100.00;102251.97;5283697;28;20036;-76
2023/06/01 07:46:44;;;;;;;13.82;8.75;;;;;;;18.00;100.00;102247.41;5285375;28;20081;-76
2023/06/01 07:49:16;;;;;;;16.50;8.20;;;;;;;18.49;100.00;102255.81;5283806;28;20531;-75
2023/06/01 07:51:48;;;;;;;13.77;7.88;;;;;;;18.55;100.00;102254.34;5277410;28;20107;-76
2023/06/01 07:54:19;;;;;;;10.98;8.20;;;;;;;18.76;100.00;102255.78;5279949;28;20375;-76
2023/06/01 07:56:51;;;;;;;17.65;8.52;;;;;;;18.72;100.00;102249.84;5284580;28;20027;-76
2023/06/01 07:59:23;;;;;;;15.70;8.70;;;;;;;18.86;100.00;102256.53;5278874;28;20029;-75
2023/06/01 08:01:56;;;;;;;13.02;7.93;;;;;;;18.98;100.00;102263.34;5279727;28;20027;-76
2023/06/01 08:04:33;;;;;;;10.75;8.18;;;;;;;19.22;100.00;102259.88;5279573;28;20040;-76
2023/06/01 08:07:06;;;;;;;14.27;8.35;;;;;;;19.48;100.00;102256.22;5282025;28;20051;-77
2023/06/01 08:09:38;;;;;;;15.00;8.65;;;;;;;19.88;100.00;102248.28;5284292;28;20056;-77
2023/06/01 08:12:11;;;;;;;12.20;8.10;;;;;;;19.65;100.00;102255.22;5285357;28;20533;-77
2023/06/01 08:14:44;;;;;;;10.55;8.25;;;;;;;19.89;100.00;102250.00;5289123;28;20036;-77
2023/06/01 08:17:16;;;;;;;12.18;7.82;;;;;;;19.98;100.00;102249.81;5290153;28;20028;-76
2023/06/01 08:19:47;;;;;;;11.10;8.27;;;;;;;20.18;100.00;102244.03;5283493;28;20027;-77
2023/06/01 08:22:20;;;;;;;14.95;8.10;;;;;;;20.51;100.00;102244.81;5286016;28;20562;-76
2023/06/01 08:24:52;;;;;;;12.60;8.70;;;;;;;20.86;100.00;102248.09;5287141;28;20043;-77
2023/06/01 08:27:24;;;;;;;11.15;8.18;;;;;;;20.98;100.00;102248.53;5282959;28;20042;-77
2023/06/01 08:29:55;;;;;;;10.60;8.07;;;;;;;21.06;100.00;102250.38;5291050;28;20028;-77
2023/06/01 08:32:26;;;;;;;14.05;7.47;;;;;;;21.03;100.00;102245.28;5290626;28;20024;-77
2023/06/01 08:34:58;;;;;;;12.05;7.82;;;;;;;21.61;100.00;102246.63;5293709;28;20651;-77
2023/06/01 08:37:30;;;;;;;12.20;8.30;;;;;;;21.62;100.00;102250.19;5281798;28;20060;-78
2023/06/01 08:40:04;;;;;;;13.15;8.40;;;;;;;21.36;100.00;102247.81;5291772;28;20032;-76
2023/06/01 08:42:58;;;;;;;11.18;8.00;;;;;;;22.15;100.00;102236.66;5289324;28;20036;-78
2023/06/01 08:45:31;;;;;;;12.90;8.55;;;;;;;21.38;100.00;102241.16;5290232;28;20430;-77
2023/06/01 08:48:08;;;;;;;13.18;8.00;;;;;;;22.21;100.00;102230.47;5297004;28;20028;-78
2023/06/01 08:50:40;;;;;;;14.75;8.93;;;;;;;22.36;100.00;102231.34;5285434;28;20119;-78
2023/06/01 08:53:12;;;;;;;14.43;8.85;;;;;;;22.23;100.00;102223.81;5283448;28;20328;-78
2023/06/01 08:55:44;;;;;;;16.80;8.57;;;;;;;22.26;100.00;102226.19;5286737;28;20059;-77
2023/06/01 08:58:15;;;;;;;10.70;8.23;;;;;;;22.54;100.00;102230.13;5284288;28;20035;-77
2023/06/01 09:00:51;;;;;;;12.80;8.23;;;;;;;22.99;100.00;102228.19;5296249;28;20477;-78
2023/06/01 09:03:24;;;;;;;12.30;9.30;;;;;;;22.94;100.00;102236.09;5283291;28;20469;-77
2023/06/01 09:05:55;;;;;;;11.25;8.85;;;;;;;22.95;100.00;102233.16;5293197;28;20093;-78
2023/06/01 09:08:26;;;;;;;11.48;8.18;;;;;;;23.06;100.00;102229.13;5287868;28;20029;-77
2023/06/01 09:10:58;;;;;;;13.00;8.20;;;;;;;23.54;100.00;102221.25;5282595;28;20193;-78
2023/06/01 09:13:37;;;;;;;12.73;8.48;;;;;;;23.64;100.00;102222.81;5287787;28;20115;-77
2023/06/01 09:16:09;;;;;;;15.52;8.80;;;;;;;23.36;100.00;102212.69;5283337;28;20020;-77
2023/06/01 09:18:54;;;;;;;13.95;8.82;;;;;;;23.54;100.00;102213.06;5288246;28;20024;-77
2023/06/01 09:21:25;;;;;;;14.68;9.00;;;;;;;23.33;100.00;102208.47;5290847;28;20039;-77
2023/06/01 09:24:17;;;;;;;16.70;9.23;;;;;;;23.46;100.00;102215.94;5294372;28;20020;-78
2023/06/01 09:26:49;;;;;;;13.75;8.60;;;;;;;23.27;100.00;102205.72;5285586;28;20024;-75
2023/06/01 09:29:21;;;;;;;12.18;8.63;;;;;;;23.70;100.00;102206.53;5286019;28;20032;-76
2023/06/01 09:31:52;;;;;;;13.38;8.88;;;;;;;24.14;100.00;102205.41;5289501;28;20026;-78
2023/06/01 09:34:25;;;;;;;13.80;8.82;;;;;;;24.37;100.00;102206.16;5282335;28;21539;-78
2023/06/01 09:36:56;;;;;;;13.15;8.60;;;;;;;24.24;100.00;102196.84;5293197;28;20202;-79
2023/06/01 09:39:33;;;;;;;22.90;9.48;;;;;;;24.50;100.00;102198.06;5279892;28;20031;-77
2023/06/01 09:42:06;;;;;;;13.48;10.52;;;;;;;24.33;100.00;102186.63;5289384;28;20032;-77
2023/06/01 09:44:42;;;;;;;13.15;9.50;;;;;;;24.55;99.03;102192.03;5294218;28;20527;-75
2023/06/01 09:47:14;;;;;;;11.35;9.20;;;;;;;24.80;98.35;102187.69;5287270;28;20020;-80
2023/06/01 09:49:50;;;;;;;11.52;8.90;;;;;;;25.11;99.41;102189.06;5288094;28;20023;-76
2023/06/01 09:52:21;;;;;;;;;;;;;;;26.28;96.98;102189.50;5287505;28;20082;-76
2023/06/01 09:54:58;;;;;;;13.23;8.30;;;;;;;26.06;96.79;102193.53;5285582;28;19917;-76
2023/06/01 09:57:29;;;;;;;13.00;9.52;;;;;;;25.88;93.16;102186.81;5296257;28;20554;-77
2023/06/01 10:00:05;;;;;;;15.88;9.10;;;;;;;25.73;90.86;102197.13;5285790;28;20062;-76
2023/06/01 10:02:40;;;;;;;;;;;;;;;26.91;94.16;102186.09;5286034;28;20059;-77
2023/06/01 10:05:12;;;;;;;12.32;8.52;;;;;;;26.37;88.33;102184.63;5290632;28;20023;-77
2023/06/01 10:07:44;;;;;;;13.05;8.80;;;;;;;26.23;87.78;102181.09;5281065;28;20111;-76
2023/06/01 10:10:15;;;;;;;12.15;8.13;;;;;;;26.73;nan;102178.59;5290658;28;20072;-78
2023/06/01 10:12:47;;;;;;;16.08;8.88;;;;;;;26.21;82.76;102186.78;5291809;28;20107;-78
2023/06/01 10:15:18;;;;;;;10.38;8.63;;;;;;;26.52;84.54;102178.88;5293244;28;20067;-78
2023/06/01 10:17:50;;;;;;;16.63;9.20;;;;;;;26.26;83.99;102180.63;5288151;28;20081;-77
2023/06/01 10:20:21;;;;;;;11.02;8.55;;;;;;;26.74;83.28;102183.00;5290937;28;20033;-78
2023/06/01 10:22:53;;;;;;;16.15;8.80;;;;;;;27.15;81.31;102186.34;5286490;28;20021;-77
2023/06/01 10:25:25;;;;;;;9.25;7.68;;;;;;;26.90;79.67;102178.94;5287815;28;20032;-77
2023/06/01 10:28:10;;;;;;;14.13;8.40;;;;;;;27.14;82.98;102181.94;5298750;28;20107;-77
2023/06/01 10:30:41;;;;;;;11.93;9.27;;;;;;;26.98;78.87;102172.34;5285881;28;20485;-78
2023/06/01 10:33:12;;;;;;;15.75;9.65;;;;;;;26.91;74.95;102174.28;5301271;28;20646;-77
2023/06/01 10:35:49;;;;;;;14.87;10.00;;;;;;;27.07;78.14;102176.50;5294061;28;20035;-76
2023/06/01 10:38:21;;;;;;;12.60;9.40;;;;;;;26.76;77.47;102166.38;5289703;28;20287;-78
2023/06/01 10:41:30;;;;;;;11.10;9.38;;;;;;;27.19;79.87;102159.38;5287406;28;20071;-77
2023/06/01 10:44:01;;;;;;;12.32;9.20;;;;;;;27.09;75.23;102165.34;5294800;28;20051;-77
2023/06/01 10:46:33;;;;;;;11.50;8.80;;;;;;;27.23;74.58;102166.94;5292779;28;20024;-77
2023/06/01 10:49:05;;;;;;;12.40;8.98;;;;;;;27.24;73.87;102163.09;5288222;28;20032;-77
2023/06/01 10:51:37;;;;;;;14.93;9.43;;;;;;;27.21;73.25;102160.84;5292025;28;20058;-76
2023/06/01 10:54:25;;;;;;;11.95;9.20;;;;;;;27.69;75.04;102170.38;5284529;28;20038;-77
2023/06/01 10:57:21;;;;;;;14.27;9.73;;;;;;;27.82;74.36;102158.44;5289813;28;20024;-75
2023/06/01 11:00:11;;;;;;;11.02;9.20;;;;;;;27.80;74.91;102166.88;5291401;28;20032;-78
2023/06/01 11:03:03;;;;;;;13.57;9.48;;;;;;;27.72;75.19;102156.22;5292600;28;20393;-77
2023/06/01 11:05:48;;;;;;;12.77;9.55;;;;;;;28.08;74.85;102162.81;5290212;28;20519;-78
2023/06/01 11:08:20;;;;;;;14.90;10.30;;;;;;;27.31;69.99;102149.41;5284417;28;20090;-78
2023/06/01 11:10:54;;;;;;;12.18;9.57;;;;;;;27.88;72.17;102152.88;5280252;28;20025;-78
2023/06/01 11:13:34;;;;;;;12.20;9.05;;;;;;;27.94;69.11;102153.06;5281084;28;20033;-77
2023/06/01 11:16:18;;;;;;;13.65;9.30;;;;;;;28.05;68.64;102144.06;5289829;28;20031;-78
2023/06/01 11:18:58;;;;;;;12.13;9.60;;;;;;;27.69;67.23;102141.06;5284616;28;20036;-78
2023/06/01 11:21:30;;;;;;;11.95;8.73;;;;;;;28.04;68.51;102153.38;5290055;28;20051;-78
2023/06/01 11:24:20;;;;;;;13.63;8.68;;;;;;;28.54;69.89;102145.00;5283952;28;20055;-77
2023/06/01 11:26:51;;;;;;;19.75;9.27;;;;;;;28.42;69.78;102142.16;5286488;28;20028;-79
2023/06/01 11:29:24;;;;;;;16.58;10.00;;;;;;;28.42;67.23;102139.44;5283606;28;20028;-77
2023/06/01 11:31:59;;;;;;;13.98;9.27;;;;;;;28.57;68.57;102135.47;5285367;28;20431;-77
2023/06/01 11:34:38;;;;;;;15.48;10.68;;;;;;;28.44;67.82;102133.72;5287862;28;20047;-77